createdAt,value
2018-04-24T00:00:09.041Z,79.67
2018-04-24T00:01:09.077Z,80.15
2018-04-24T00:02:09.153Z,80.24
2018-04-24T00:03:09.209Z,80.43
2018-04-24T00:04:09.573Z,80.39
2018-04-24T00:05:09.333Z,79.86
2018-04-24T00:06:09.405Z,79.86
2018-04-24T00:07:09.464Z,80.24
2018-04-24T00:08:09.525Z,80.11
2018-04-24T00:09:09.593Z,80.05
2018-04-24T00:10:09.659Z,79.10
2018-04-24T00:11:09.721Z,80.05
2018-04-24T00:12:09.785Z,80.15
2018-04-24T00:13:09.849Z,80.24
2018-04-24T00:14:09.917Z,79.77
2018-04-24T00:15:09.981Z,80.15
2018-04-24T00:16:10.029Z,80.01
2018-04-24T00:17:10.094Z,80.01
2018-04-24T00:18:10.158Z,80.11
2018-04-24T00:19:10.238Z,79.53
2018-04-24T00:20:10.278Z,79.82
2018-04-24T00:21:10.337Z,80.20
2018-04-24T00:22:10.409Z,79.35
2018-04-24T00:23:10.465Z,79.25
2018-04-24T00:24:10.538Z,79.35
2018-04-24T00:25:10.622Z,79.06
2018-04-24T00:26:10.678Z,78.77
2018-04-24T00:27:10.718Z,78.77
2018-04-24T00:28:10.782Z,78.77
2018-04-24T00:29:10.872Z,79.35
2018-04-24T00:30:10.922Z,79.63
2018-04-24T00:31:10.975Z,79.35
2018-04-24T00:32:11.038Z,78.77
2018-04-24T00:33:11.094Z,79.06
2018-04-24T00:34:11.314Z,78.96
2018-04-24T00:35:11.222Z,79.35
2018-04-24T00:36:11.286Z,79.35
2018-04-24T00:37:11.350Z,79.63
2018-04-24T00:38:11.411Z,79.63
2018-04-24T00:39:11.478Z,79.63
2018-04-24T00:40:11.543Z,79.35
2018-04-24T00:41:11.601Z,79.53
2018-04-24T00:42:11.664Z,79.35
2018-04-24T00:43:11.727Z,79.25
2018-04-24T00:44:11.795Z,79.25
2018-04-24T00:45:11.859Z,79.25
2018-04-24T00:46:11.915Z,79.44
2018-04-24T00:47:11.975Z,79.63
2018-04-24T00:48:12.039Z,79.06
2018-04-24T00:49:12.114Z,79.35
2018-04-24T00:50:12.159Z,79.49
2018-04-24T00:51:12.231Z,79.15
2018-04-24T00:52:12.287Z,79.59
2018-04-24T00:53:12.355Z,79.53
2018-04-24T00:54:12.423Z,79.49
2018-04-24T00:55:12.483Z,79.25
2018-04-24T00:56:12.546Z,79.30
2018-04-24T00:57:12.603Z,79.68
2018-04-24T00:58:12.667Z,79.59
2018-04-24T00:59:12.737Z,79.11
2018-04-24T01:00:12.799Z,79.40
2018-04-24T01:01:12.891Z,79.59
2018-04-24T01:02:12.995Z,78.92
2018-04-24T01:03:12.979Z,79.21
2018-04-24T01:04:13.051Z,78.64
2018-04-24T01:05:13.111Z,78.44
2018-04-24T01:06:13.167Z,78.06
2018-04-24T01:07:13.235Z,78.06
2018-04-24T01:08:13.291Z,77.78
2018-04-24T01:09:13.380Z,78.44
2018-04-24T01:10:13.423Z,78.16
2018-04-24T01:11:13.480Z,78.16
2018-04-24T01:12:13.545Z,78.25
2018-04-24T01:13:13.608Z,78.73
2018-04-24T01:14:13.676Z,78.73
2018-04-24T01:15:13.740Z,78.73
2018-04-24T01:16:13.796Z,78.83
2018-04-24T01:17:13.856Z,78.54
2018-04-24T01:18:13.921Z,78.83
2018-04-24T01:19:13.988Z,79.02
2018-04-24T01:20:14.053Z,78.06
2018-04-24T01:21:14.109Z,77.69
2018-04-24T01:22:14.169Z,77.69
2018-04-24T01:23:14.236Z,78.25
2018-04-24T01:24:14.297Z,77.87
2018-04-24T01:25:14.453Z,77.87
2018-04-24T01:26:14.421Z,77.59
2018-04-24T01:27:14.481Z,77.87
2018-04-24T01:28:14.545Z,78.06
2018-04-24T01:29:14.614Z,78.35
2018-04-24T01:30:14.677Z,78.06
2018-04-24T01:31:14.742Z,78.44
2018-04-24T01:32:14.799Z,78.35
2018-04-24T01:33:14.858Z,78.64
2018-04-24T01:34:14.922Z,78.64
2018-04-24T01:35:14.990Z,79.59
2018-04-24T01:36:15.054Z,79.21
2018-04-24T01:37:15.111Z,79.40
2018-04-24T01:38:15.174Z,79.40
2018-04-24T01:39:15.236Z,79.59
2018-04-24T01:40:15.298Z,79.68
2018-04-24T01:41:15.454Z,79.59
2018-04-24T01:42:15.422Z,79.30
2018-04-24T01:43:15.479Z,79.64
2018-04-24T01:44:15.546Z,79.59
2018-04-24T01:45:15.614Z,79.78
2018-04-24T01:46:15.682Z,80.22
2018-04-24T01:47:15.744Z,80.12
2018-04-24T01:48:15.790Z,80.88
2018-04-24T01:49:15.858Z,79.74
2018-04-24T01:50:15.919Z,79.83
2018-04-24T01:51:15.990Z,80.69
2018-04-24T01:52:16.050Z,80.31
2018-04-24T01:53:16.103Z,80.31
2018-04-24T01:54:16.170Z,80.41
2018-04-24T01:55:16.231Z,80.69
2018-04-24T01:56:16.295Z,80.60
2018-04-24T01:57:16.375Z,80.69
2018-04-24T01:58:16.431Z,81.17
2018-04-24T01:59:16.483Z,81.07
2018-04-24T02:00:16.543Z,81.65
2018-04-24T02:01:16.607Z,82.21
2018-04-24T02:02:16.675Z,82.03
2018-04-24T02:03:16.747Z,81.84
2018-04-24T02:04:16.794Z,81.55
2018-04-24T02:05:16.854Z,81.55
2018-04-24T02:06:16.919Z,81.84
2018-04-24T02:07:16.995Z,81.36
2018-04-24T02:08:17.051Z,82.60
2018-04-24T02:09:17.107Z,82.12
2018-04-24T02:10:17.167Z,81.46
2018-04-24T02:11:17.231Z,81.65
2018-04-24T02:12:17.291Z,82.31
2018-04-24T02:13:17.462Z,82.12
2018-04-24T02:14:17.419Z,82.21
2018-04-24T02:15:17.479Z,82.79
2018-04-24T02:16:17.543Z,82.50
2018-04-24T02:17:17.607Z,82.89
2018-04-24T02:18:17.673Z,83.17
2018-04-24T02:19:17.735Z,82.69
2018-04-24T02:20:17.791Z,83.07
2018-04-24T02:21:17.855Z,82.41
2018-04-24T02:22:17.915Z,82.60
2018-04-24T02:23:17.984Z,82.60
2018-04-24T02:24:18.047Z,82.60
2018-04-24T02:25:18.110Z,82.21
2018-04-24T02:26:18.163Z,82.03
2018-04-24T02:27:18.227Z,82.50
2018-04-24T02:28:18.291Z,81.84
2018-04-24T02:29:18.367Z,81.65
2018-04-24T02:30:18.416Z,81.55
2018-04-24T02:31:18.476Z,81.26
2018-04-24T02:32:18.540Z,81.93
2018-04-24T02:33:18.600Z,81.84
2018-04-24T02:34:18.675Z,81.46
2018-04-24T02:35:18.732Z,81.17
2018-04-24T02:36:18.788Z,81.26
2018-04-24T02:37:18.851Z,81.26
2018-04-24T02:38:18.912Z,81.93
2018-04-24T02:39:18.984Z,81.36
2018-04-24T02:40:19.054Z,81.17
2018-04-24T02:41:19.104Z,81.65
2018-04-24T02:42:19.162Z,81.55
2018-04-24T02:43:19.229Z,81.36
2018-04-24T02:44:19.308Z,81.36
2018-04-24T02:45:19.348Z,81.26
2018-04-24T02:46:19.408Z,81.65
2018-04-24T02:47:19.487Z,81.93
2018-04-24T02:48:19.538Z,81.46
2018-04-24T02:49:19.604Z,82.12
2018-04-24T02:50:19.664Z,81.74
2018-04-24T02:51:19.723Z,82.03
2018-04-24T02:52:19.785Z,81.36
2018-04-24T02:53:19.845Z,81.84
2018-04-24T02:54:19.908Z,81.74
2018-04-24T02:55:19.976Z,81.46
2018-04-24T02:56:20.032Z,81.74
2018-04-24T02:57:20.096Z,82.21
2018-04-24T02:58:20.156Z,83.07
2018-04-24T02:59:20.312Z,82.79
2018-04-24T03:00:20.281Z,82.60
2018-04-24T03:01:20.348Z,82.60
2018-04-24T03:02:20.407Z,82.79
2018-04-24T03:03:20.469Z,82.41
2018-04-24T03:04:20.538Z,82.79
2018-04-24T03:05:20.600Z,82.75
2018-04-24T03:06:20.653Z,83.55
2018-04-24T03:07:20.716Z,82.60
2018-04-24T03:08:20.780Z,82.79
2018-04-24T03:09:20.860Z,82.75
2018-04-24T03:10:20.908Z,83.80
2018-04-24T03:11:20.964Z,83.22
2018-04-24T03:12:21.028Z,83.80
2018-04-24T03:13:21.088Z,83.41
2018-04-24T03:14:21.175Z,84.17
2018-04-24T03:15:21.212Z,83.98
2018-04-24T03:16:21.276Z,84.17
2018-04-24T03:17:21.336Z,84.17
2018-04-24T03:18:21.404Z,84.65
2018-04-24T03:19:21.472Z,83.70
2018-04-24T03:20:21.532Z,84.94
2018-04-24T03:21:21.588Z,85.70
2018-04-24T03:22:21.650Z,84.46
2018-04-24T03:23:21.712Z,84.56
2018-04-24T03:24:21.780Z,84.65
2018-04-24T03:25:21.841Z,84.27
2018-04-24T03:26:21.896Z,84.94
2018-04-24T03:27:21.961Z,85.22
2018-04-24T03:28:22.021Z,83.89
2018-04-24T03:29:22.101Z,84.56
2018-04-24T03:30:22.152Z,84.46
2018-04-24T03:31:22.209Z,83.70
2018-04-24T03:32:22.274Z,84.94
2018-04-24T03:33:22.334Z,84.65
2018-04-24T03:34:22.402Z,84.08
2018-04-24T03:35:22.469Z,84.56
2018-04-24T03:36:22.522Z,84.75
2018-04-24T03:37:22.586Z,83.89
2018-04-24T03:38:22.646Z,85.32
2018-04-24T03:39:22.714Z,85.32
2018-04-24T03:40:22.779Z,85.70
2018-04-24T03:41:22.826Z,84.94
2018-04-24T03:42:22.902Z,85.03
2018-04-24T03:43:22.970Z,85.60
2018-04-24T03:44:23.027Z,84.94
2018-04-24T03:45:23.089Z,84.84
2018-04-24T03:46:23.138Z,84.84
2018-04-24T03:47:23.206Z,84.46
2018-04-24T03:48:23.262Z,84.65
2018-04-24T03:49:23.443Z,84.65
2018-04-24T03:50:23.394Z,84.36
2018-04-24T03:51:23.459Z,85.22
2018-04-24T03:52:23.515Z,84.94
2018-04-24T03:53:23.579Z,85.03
2018-04-24T03:54:23.646Z,84.84
2018-04-24T03:55:23.707Z,86.08
2018-04-24T03:56:23.771Z,85.70
2018-04-24T03:57:23.918Z,85.51
2018-04-24T03:58:23.890Z,85.03
2018-04-24T03:59:23.967Z,84.36
2018-04-24T04:00:24.027Z,84.84
2018-04-24T04:01:24.075Z,85.60
2018-04-24T04:02:24.131Z,85.32
2018-04-24T04:03:24.199Z,84.65
2018-04-24T04:04:24.283Z,85.03
2018-04-24T04:05:24.323Z,85.13
2018-04-24T04:06:24.389Z,84.94
2018-04-24T04:07:24.452Z,85.51
2018-04-24T04:08:24.516Z,84.65
2018-04-24T04:09:24.581Z,84.65
2018-04-24T04:10:24.636Z,84.65
2018-04-24T04:11:24.691Z,85.41
2018-04-24T04:12:24.760Z,84.65
2018-04-24T04:13:24.819Z,85.51
2018-04-24T04:14:24.888Z,85.80
2018-04-24T04:15:24.952Z,85.89
2018-04-24T04:16:25.008Z,85.51
2018-04-24T04:17:25.075Z,85.41
2018-04-24T04:18:25.131Z,84.84
2018-04-24T04:19:25.356Z,84.36
2018-04-24T05:19:35.971Z,81.84
2018-04-24T05:20:35.915Z,81.74
2018-04-24T05:21:35.971Z,81.59
2018-04-24T05:22:36.026Z,81.49
2018-04-24T05:23:36.087Z,80.92
2018-04-24T05:24:36.271Z,81.02
2018-04-24T05:25:36.213Z,81.21
2018-04-24T05:26:36.341Z,80.54
2018-04-24T05:27:36.327Z,80.92
2018-04-24T05:28:36.386Z,81.30
2018-04-24T05:29:36.458Z,81.21
2018-04-24T05:30:36.519Z,81.21
2018-04-24T05:31:36.574Z,80.26
2018-04-24T05:32:36.639Z,80.92
2018-04-24T05:33:36.699Z,81.21
2018-04-24T05:34:36.771Z,80.16
2018-04-24T05:35:36.828Z,80.54
2018-04-24T05:36:36.880Z,80.35
2018-04-24T05:37:36.947Z,81.21
2018-04-24T05:38:37.007Z,80.92
2018-04-24T05:39:37.076Z,80.35
2018-04-24T05:40:37.144Z,79.97
2018-04-24T05:41:37.191Z,79.68
2018-04-24T05:42:37.256Z,79.88
2018-04-24T05:43:37.316Z,79.78
2018-04-24T05:44:37.387Z,78.92
2018-04-24T05:45:37.448Z,79.49
2018-04-24T05:46:37.504Z,79.82
2018-04-24T05:47:37.571Z,79.53
2018-04-24T05:48:37.631Z,80.16
2018-04-24T05:49:37.700Z,79.49
2018-04-24T05:50:39.424Z,78.96
2018-04-24T05:51:37.816Z,79.53
2018-04-24T05:52:37.875Z,79.06
2018-04-24T05:53:37.944Z,79.63
2018-04-24T05:54:38.012Z,80.11
2018-04-24T05:55:38.076Z,79.15
2018-04-24T05:56:38.132Z,78.67
2018-04-24T05:57:38.196Z,78.30
2018-04-24T05:58:38.264Z,78.10
2018-04-24T05:59:38.328Z,78.20
2018-04-24T06:00:38.392Z,78.77
2018-04-24T06:01:38.448Z,78.86
2018-04-24T06:02:38.516Z,78.77
2018-04-24T06:03:38.572Z,78.10
2018-04-24T06:04:38.644Z,78.14
2018-04-24T06:05:38.707Z,77.00
2018-04-24T06:06:38.760Z,77.00
2018-04-24T06:07:38.827Z,76.71
2018-04-24T06:08:38.903Z,76.71
2018-04-24T06:09:38.960Z,76.14
2018-04-24T06:10:39.025Z,75.95
2018-04-24T06:11:39.080Z,76.52
2018-04-24T06:12:39.140Z,76.81
2018-04-24T06:13:39.204Z,76.52
2018-04-24T06:14:39.580Z,76.33
2018-04-24T06:15:39.332Z,76.14
2018-04-24T06:16:39.400Z,76.33
2018-04-24T06:17:39.460Z,76.90
2018-04-24T06:18:39.528Z,76.52
2018-04-24T06:19:39.592Z,75.79
2018-04-24T06:20:39.657Z,75.60
2018-04-24T06:21:39.712Z,76.37
2018-04-24T06:22:39.781Z,74.93
2018-04-24T06:23:39.841Z,74.55
2018-04-24T06:24:39.912Z,74.37
2018-04-24T06:25:39.981Z,74.55
2018-04-24T06:26:40.032Z,73.88
2018-04-24T06:27:40.093Z,74.55
2018-04-24T06:28:40.240Z,74.37
2018-04-24T06:29:40.260Z,74.74
2018-04-24T06:30:40.289Z,74.37
2018-04-24T06:31:40.352Z,75.03
2018-04-24T06:32:40.421Z,73.32
2018-04-24T06:33:40.481Z,74.27
2018-04-24T06:34:40.553Z,74.37
2018-04-24T06:35:40.618Z,74.08
2018-04-24T06:36:40.673Z,74.74
2018-04-24T06:37:40.737Z,73.03
2018-04-24T06:38:40.801Z,73.79
2018-04-24T06:39:40.868Z,73.88
2018-04-24T06:40:40.933Z,73.98
2018-04-24T06:41:40.995Z,74.74
2018-04-24T06:42:41.057Z,74.37
2018-04-24T06:43:41.120Z,74.93
2018-04-24T06:44:41.291Z,75.03
2018-04-24T06:45:41.250Z,75.60
2018-04-24T06:46:41.313Z,75.13
2018-04-24T06:47:41.428Z,74.55
2018-04-24T06:48:41.450Z,74.17
2018-04-24T06:49:41.509Z,74.37
2018-04-24T06:50:41.581Z,75.22
2018-04-24T06:51:41.633Z,75.03
2018-04-24T06:52:41.701Z,75.03
2018-04-24T06:53:41.761Z,74.93
2018-04-24T06:54:41.837Z,74.93
2018-04-24T06:55:41.894Z,75.32
2018-04-24T06:56:41.955Z,74.98
2018-04-24T06:57:42.018Z,74.11
2018-04-24T06:58:42.084Z,73.63
2018-04-24T06:59:42.301Z,73.73
2018-04-24T07:00:42.285Z,74.40
2018-04-24T07:01:42.274Z,74.21
2018-04-24T07:02:42.337Z,73.54
2018-04-24T07:03:42.401Z,73.19
2018-04-24T07:04:42.475Z,72.91
2018-04-24T07:05:42.538Z,72.33
2018-04-24T07:06:42.598Z,72.43
2018-04-24T07:07:42.658Z,72.72
2018-04-24T07:08:42.727Z,71.72
2018-04-24T07:09:42.794Z,71.67
2018-04-24T07:10:42.862Z,72.58
2018-04-24T07:11:42.924Z,72.53
2018-04-24T07:12:42.982Z,71.76
2018-04-24T07:13:43.046Z,71.38
2018-04-24T07:14:43.513Z,72.33
2018-04-24T07:15:43.174Z,71.86
2018-04-24T07:16:43.240Z,71.86
2018-04-24T07:17:43.309Z,71.57
2018-04-24T07:18:43.370Z,72.43
2018-04-24T07:19:43.434Z,72.24
2018-04-24T07:20:43.522Z,72.62
2018-04-24T07:21:43.562Z,72.33
2018-04-24T07:22:43.631Z,71.57
2018-04-24T07:23:43.694Z,73.77
2018-04-24T07:24:43.759Z,72.05
2018-04-24T07:25:43.905Z,71.67
2018-04-24T07:26:43.895Z,71.76
2018-04-24T07:27:43.951Z,71.57
2018-04-24T07:28:44.019Z,71.95
2018-04-24T07:29:44.088Z,72.24
2018-04-24T07:30:44.303Z,72.33
2018-04-24T07:31:44.215Z,71.82
2018-04-24T07:32:44.275Z,71.95
2018-04-24T07:33:44.339Z,72.87
2018-04-24T07:34:44.404Z,72.33
2018-04-24T07:35:44.479Z,72.62
2018-04-24T07:36:44.539Z,72.14
2018-04-24T07:37:44.600Z,72.33
2018-04-24T07:38:44.664Z,72.62
2018-04-24T07:39:44.728Z,73.39
2018-04-24T07:40:44.832Z,72.87
2018-04-24T07:41:44.868Z,72.91
2018-04-24T07:42:44.930Z,72.43
2018-04-24T07:43:44.983Z,72.58
2018-04-24T07:44:45.048Z,71.72
2018-04-24T07:45:45.124Z,72.68
2018-04-24T07:46:45.353Z,72.87
2018-04-24T07:47:45.244Z,72.87
2018-04-24T07:48:45.311Z,73.25
2018-04-24T07:49:45.379Z,73.58
2018-04-24T07:50:45.436Z,72.62
2018-04-24T07:51:45.512Z,72.33
2018-04-24T07:52:45.572Z,73.39
2018-04-24T07:53:45.632Z,72.58
2018-04-24T07:54:45.702Z,72.78
2018-04-24T07:55:45.767Z,72.49
2018-04-24T07:56:45.835Z,73.25
2018-04-24T07:57:45.896Z,72.97
2018-04-24T07:58:45.960Z,72.68
2018-04-24T07:59:46.024Z,72.91
2018-04-24T08:00:46.084Z,73.25
2018-04-24T08:01:46.264Z,72.49
2018-04-24T08:02:46.223Z,73.77
2018-04-24T08:03:46.280Z,73.63
2018-04-24T08:04:46.341Z,73.54
2018-04-24T08:05:46.401Z,73.16
2018-04-24T08:06:46.480Z,73.44
2018-04-24T08:07:46.540Z,73.92
2018-04-24T08:08:46.608Z,73.39
2018-04-24T08:09:46.665Z,73.19
2018-04-24T08:10:46.734Z,73.77
2018-04-24T08:11:46.797Z,74.30
2018-04-24T08:12:46.869Z,74.11
2018-04-24T08:13:46.928Z,73.35
2018-04-24T08:14:46.981Z,73.39
2018-04-24T08:15:47.045Z,72.49
2018-04-24T08:16:47.339Z,72.43
2018-04-24T08:17:47.185Z,74.21
2018-04-24T08:18:47.244Z,74.59
2018-04-24T08:19:47.309Z,75.45
2018-04-24T08:20:47.377Z,74.78
2018-04-24T08:21:47.453Z,74.21
2018-04-24T08:22:47.562Z,73.92
2018-04-24T08:23:47.561Z,74.02
2018-04-24T08:24:47.633Z,75.07
2018-04-24T08:25:47.693Z,75.07
2018-04-24T08:26:47.772Z,75.16
2018-04-24T08:27:47.837Z,75.45
2018-04-24T08:28:47.884Z,75.54
2018-04-24T08:29:47.951Z,74.88
2018-04-24T08:30:48.025Z,75.07
2018-04-24T08:31:48.121Z,75.74
2018-04-24T08:32:48.146Z,75.54
2018-04-24T08:33:48.239Z,74.78
2018-04-24T08:34:48.281Z,75.07
2018-04-24T08:35:48.337Z,75.54
2018-04-24T08:36:48.413Z,74.59
2018-04-24T08:37:48.481Z,75.16
2018-04-24T08:38:48.533Z,74.11
2018-04-24T08:39:48.598Z,74.21
2018-04-24T08:40:48.666Z,74.59
2018-04-24T08:41:48.734Z,74.98
2018-04-24T08:42:48.798Z,74.59
2018-04-24T08:43:48.853Z,74.49
2018-04-24T08:44:48.914Z,74.78
2018-04-24T08:45:48.985Z,75.83
2018-04-24T08:46:49.050Z,75.26
2018-04-24T08:47:49.179Z,76.03
2018-04-24T08:48:49.175Z,77.26
2018-04-24T08:49:49.244Z,75.93
2018-04-24T08:50:49.303Z,76.88
2018-04-24T08:51:49.366Z,76.69
2018-04-24T08:52:49.442Z,75.93
2018-04-24T08:53:49.513Z,76.12
2018-04-24T08:54:49.558Z,76.79
2018-04-24T08:55:49.634Z,77.74
2018-04-24T08:56:49.710Z,78.51
2018-04-24T08:57:49.759Z,78.22
2018-04-24T08:58:49.819Z,77.84
2018-04-24T08:59:49.879Z,77.74
2018-04-24T09:00:49.942Z,79.56
2018-04-24T09:01:50.035Z,78.89
2018-04-24T09:02:50.075Z,79.75
2018-04-24T09:03:50.154Z,79.36
2018-04-24T09:04:50.202Z,79.75
2018-04-24T09:05:50.262Z,79.08
2018-04-24T09:06:50.350Z,80.13
2018-04-24T09:07:50.398Z,82.14
2018-04-24T09:08:50.463Z,80.61
2018-04-24T09:09:50.523Z,80.32
2018-04-24T09:10:50.587Z,81.18
2018-04-24T09:11:50.658Z,81.66
2018-04-24T09:12:50.718Z,81.18
2018-04-24T09:13:50.779Z,81.37
2018-04-24T09:14:50.845Z,81.76
2018-04-24T09:15:50.916Z,80.80
2018-04-24T09:16:50.978Z,81.76
2018-04-24T09:17:51.039Z,83.09
2018-04-24T09:18:51.099Z,81.76
2018-04-24T09:19:51.163Z,81.76
2018-04-24T09:20:51.227Z,82.23
2018-04-24T09:21:51.558Z,82.32
2018-04-24T09:22:51.355Z,82.61
2018-04-24T09:23:51.418Z,81.66
2018-04-24T09:24:51.488Z,82.42
2018-04-24T09:25:51.546Z,81.95
2018-04-24T09:26:51.637Z,80.90
2018-04-24T09:27:51.701Z,81.71
2018-04-24T09:28:51.738Z,83.14
2018-04-24T09:29:51.802Z,81.71
2018-04-24T09:30:51.870Z,81.81
2018-04-24T09:31:51.938Z,81.71
2018-04-24T09:32:52.001Z,82.90
2018-04-24T09:33:52.054Z,82.32
2018-04-24T09:34:52.123Z,81.81
2018-04-24T09:35:52.186Z,83.05
2018-04-24T09:36:52.413Z,82.57
2018-04-24T09:37:52.314Z,82.48
2018-04-24T09:38:52.383Z,83.76
2018-04-24T09:39:52.442Z,82.81
2018-04-24T09:40:52.510Z,83.47
2018-04-24T09:41:52.583Z,83.81
2018-04-24T09:42:52.658Z,82.81
2018-04-24T09:43:52.736Z,83.76
2018-04-24T09:44:52.767Z,83.86
2018-04-24T09:45:52.903Z,85.77
2018-04-24T09:46:52.903Z,83.95
2018-04-24T09:47:52.962Z,84.52
2018-04-24T09:48:53.084Z,84.95
2018-04-24T09:49:53.083Z,83.86
2018-04-24T09:50:53.157Z,84.91
2018-04-24T09:51:53.254Z,83.76
2018-04-24T09:52:53.274Z,83.95
2018-04-24T09:53:53.342Z,85.10
2018-04-24T09:54:53.407Z,84.19
2018-04-24T09:55:53.470Z,84.95
2018-04-24T09:56:53.598Z,85.14
2018-04-24T09:57:53.606Z,86.38
2018-04-24T09:58:53.670Z,87.05
2018-04-24T09:59:53.726Z,86.86
2018-04-24T10:00:53.791Z,87.43
2018-04-24T10:01:53.878Z,86.00
2018-04-24T10:02:53.927Z,85.24
2018-04-24T10:03:53.982Z,85.14
2018-04-24T10:04:54.051Z,83.13
2018-04-24T10:05:54.115Z,82.94
2018-04-24T10:06:54.191Z,82.84
2018-04-24T10:07:54.330Z,84.38
2018-04-24T10:08:54.317Z,83.42
2018-04-24T10:09:54.375Z,83.61
2018-04-24T10:10:54.435Z,83.70
2018-04-24T10:11:54.511Z,83.51
2018-04-24T10:12:54.580Z,82.94
2018-04-24T10:13:54.627Z,85.14
2018-04-24T10:14:54.700Z,84.56
2018-04-24T10:15:54.760Z,84.47
2018-04-24T10:16:54.839Z,85.09
2018-04-24T10:17:54.896Z,83.08
2018-04-24T10:18:54.955Z,82.70
2018-04-24T10:19:55.019Z,84.61
2018-04-24T10:20:55.080Z,85.57
2018-04-24T10:21:55.448Z,83.94
2018-04-24T10:22:55.212Z,82.98
2018-04-24T10:23:55.280Z,83.79
2018-04-24T10:24:55.340Z,82.60
2018-04-24T10:25:55.404Z,81.45
2018-04-24T10:26:55.476Z,82.12
2018-04-24T10:27:55.539Z,82.93
2018-04-24T10:28:55.601Z,83.03
2018-04-24T10:29:55.664Z,82.07
2018-04-24T10:30:55.728Z,80.63
2018-04-24T10:31:55.800Z,80.54
2018-04-24T10:32:55.869Z,80.35
2018-04-24T10:33:55.924Z,80.73
2018-04-24T10:34:55.993Z,80.82
2018-04-24T10:35:56.052Z,78.78
2018-04-24T10:36:56.272Z,79.83
2018-04-24T10:37:56.180Z,80.35
2018-04-24T10:38:56.249Z,81.49
2018-04-24T10:39:56.316Z,79.58
2018-04-24T10:40:56.377Z,80.44
2018-04-24T10:41:56.452Z,80.06
2018-04-24T10:42:56.518Z,79.58
2018-04-24T10:43:56.655Z,80.54
2018-04-24T10:44:56.637Z,80.63
2018-04-24T10:45:56.700Z,81.11
2018-04-24T10:46:56.773Z,80.92
2018-04-24T10:47:56.844Z,80.44
2018-04-24T10:48:56.896Z,80.54
2018-04-24T10:49:56.961Z,81.88
2018-04-24T10:50:57.029Z,80.44
2018-04-24T10:51:57.106Z,79.39
2018-04-24T10:52:57.159Z,79.58
2018-04-24T10:53:57.224Z,80.35
2018-04-24T10:54:57.290Z,79.00
2018-04-24T10:55:57.378Z,79.00
2018-04-24T10:56:57.426Z,79.58
2018-04-24T10:57:57.490Z,78.72
2018-04-24T10:58:57.551Z,79.20
2018-04-24T10:59:57.615Z,79.87
2018-04-24T11:00:57.683Z,80.16
2018-04-24T11:01:57.751Z,80.35
2018-04-24T11:02:57.816Z,79.20
2018-04-24T11:03:57.875Z,79.29
2018-04-24T11:04:57.938Z,79.49
2018-04-24T11:05:58.011Z,78.63
2018-04-24T11:06:58.075Z,79.68
2018-04-24T11:07:58.143Z,79.49
2018-04-24T11:08:58.244Z,79.68
2018-04-24T11:09:58.262Z,78.53
2018-04-24T11:10:58.330Z,78.47
2018-04-24T11:11:58.494Z,78.38
2018-04-24T11:12:58.574Z,78.47
2018-04-24T11:13:58.522Z,77.23
2018-04-24T11:14:58.590Z,77.42
2018-04-24T11:15:58.654Z,77.13
2018-04-24T11:16:58.718Z,77.09
2018-04-24T11:17:58.793Z,77.90
2018-04-24T11:18:58.860Z,78.09
2018-04-24T11:19:58.914Z,77.61
2018-04-24T11:20:58.981Z,77.90
2018-04-24T11:21:59.046Z,77.42
2018-04-24T11:22:59.110Z,78.47
2018-04-24T11:23:59.192Z,79.91
2018-04-24T11:24:59.239Z,78.09
2018-04-24T11:25:59.306Z,77.90
2018-04-24T11:26:59.371Z,78.38
2018-04-24T11:27:59.435Z,77.80
2018-04-24T11:28:59.507Z,77.04
2018-04-24T11:29:59.576Z,76.37
2018-04-24T11:30:59.632Z,76.94
2018-04-24T11:31:59.696Z,77.99
2018-04-24T11:32:59.763Z,77.04
2018-04-24T11:33:59.836Z,77.61
2018-04-24T11:34:59.902Z,78.28
2018-04-24T11:36:00.022Z,78.38
2018-04-24T11:37:00.035Z,78.28
2018-04-24T11:38:00.090Z,78.19
2018-04-24T11:39:01.721Z,78.47
2018-04-24T11:40:00.221Z,79.24
2018-04-24T11:41:00.289Z,78.09
2018-04-24T11:42:00.353Z,77.04
2018-04-24T11:43:00.417Z,77.23
2018-04-24T11:44:00.487Z,77.61
2018-04-24T11:45:00.577Z,77.23
2018-04-24T11:46:00.613Z,76.94
2018-04-24T11:47:00.719Z,77.08
2018-04-24T11:48:00.741Z,78.22
2018-04-24T11:49:00.809Z,78.22
2018-04-24T11:50:00.883Z,77.84
2018-04-24T11:51:00.945Z,77.46
2018-04-24T11:52:01.008Z,78.22
2018-04-24T11:53:01.069Z,77.94
2018-04-24T11:54:01.133Z,76.60
2018-04-24T11:55:01.213Z,77.84
2018-04-24T11:56:01.266Z,77.46
2018-04-24T11:57:01.383Z,77.75
2018-04-24T11:58:01.409Z,77.13
2018-04-24T11:59:01.463Z,78.19
2018-04-24T12:00:01.533Z,77.61
2018-04-24T12:01:01.601Z,78.66
2018-04-24T12:02:01.665Z,78.99
2018-04-24T12:03:01.721Z,79.37
2018-04-24T12:04:01.789Z,79.95
2018-04-24T12:05:01.853Z,79.18
2018-04-24T12:06:01.932Z,78.51
2018-04-24T12:07:01.985Z,78.09
2018-04-24T12:08:02.048Z,78.86
2018-04-24T12:09:02.113Z,78.57
2018-04-24T12:10:02.243Z,79.24
2018-04-24T12:11:02.345Z,79.05
2018-04-24T12:12:02.308Z,79.33
2018-04-24T12:13:02.381Z,79.05
2018-04-24T12:14:02.441Z,79.52
2018-04-24T12:15:02.509Z,79.52
2018-04-24T12:16:02.577Z,78.86
2018-04-24T12:17:02.641Z,79.14
2018-04-24T12:18:02.701Z,79.24
2018-04-24T12:19:02.769Z,79.43
2018-04-24T12:20:02.833Z,80.58
2018-04-24T12:21:02.904Z,80.10
2018-04-24T12:22:02.968Z,79.81
2018-04-24T12:23:03.029Z,80.48
2018-04-24T12:24:03.105Z,80.29
2018-04-24T12:25:03.160Z,80.48
2018-04-24T12:26:03.540Z,79.52
2018-04-24T12:27:03.296Z,79.47
2018-04-24T12:28:03.358Z,79.08
2018-04-24T12:29:03.421Z,79.75
2018-04-24T12:30:03.485Z,79.28
2018-04-24T12:31:03.557Z,79.47
2018-04-24T12:32:03.621Z,78.61
2018-04-24T12:33:03.682Z,79.08
2018-04-24T12:34:03.746Z,79.33
2018-04-24T12:35:03.810Z,78.19
2018-04-24T12:36:03.882Z,78.38
2018-04-24T12:37:03.950Z,78.47
2018-04-24T12:38:04.007Z,78.95
2018-04-24T12:39:04.075Z,78.47
2018-04-24T12:40:04.139Z,78.47
2018-04-24T12:41:04.361Z,79.24
2018-04-24T12:42:04.267Z,79.72
2018-04-24T12:43:04.335Z,79.37
2018-04-24T12:44:04.400Z,79.28
2018-04-24T12:45:04.463Z,78.32
2018-04-24T12:46:04.535Z,79.37
2018-04-24T12:47:04.603Z,78.61
2018-04-24T12:48:04.663Z,78.80
2018-04-24T12:49:04.727Z,78.99
2018-04-24T12:50:04.838Z,79.08
2018-04-24T12:51:04.863Z,78.42
2018-04-24T12:52:04.927Z,79.13
2018-04-24T12:53:04.987Z,78.36
2018-04-24T12:54:05.055Z,77.75
2018-04-24T12:55:05.131Z,77.26
2018-04-24T12:56:05.271Z,76.98
2018-04-24T12:57:05.248Z,78.13
2018-04-24T12:58:05.316Z,77.94
2018-04-24T12:59:05.386Z,78.61
2018-04-24T13:00:05.444Z,78.22
2018-04-24T13:01:05.515Z,78.22
2018-04-24T13:02:05.584Z,78.51
2018-04-24T13:03:05.639Z,78.51
2018-04-24T13:04:05.705Z,78.89
2018-04-24T13:05:05.771Z,78.89
2018-04-24T13:06:05.856Z,79.66
2018-04-24T13:07:05.908Z,78.89
2018-04-24T13:08:05.974Z,79.85
2018-04-24T13:09:06.033Z,79.95
2018-04-24T13:10:06.100Z,79.28
2018-04-24T13:11:06.273Z,78.99
2018-04-24T13:12:06.228Z,78.99
2018-04-24T13:13:06.292Z,78.99
2018-04-24T13:14:06.360Z,79.08
2018-04-24T13:15:06.425Z,78.13
2018-04-24T13:16:06.497Z,78.13
2018-04-24T13:17:06.565Z,77.84
2018-04-24T13:18:06.625Z,76.92
2018-04-24T13:19:06.685Z,78.45
2018-04-24T13:20:06.753Z,76.06
2018-04-24T13:21:06.825Z,76.73
2018-04-24T13:22:06.891Z,76.96
2018-04-24T13:23:06.950Z,75.43
2018-04-24T13:24:07.013Z,74.51
2018-04-24T13:25:07.081Z,73.65
2018-04-24T13:26:07.161Z,73.16
2018-04-24T13:27:07.214Z,73.26
2018-04-24T13:28:07.281Z,73.26
2018-04-24T13:29:07.342Z,73.35
2018-04-24T13:30:07.414Z,73.65
2018-04-24T13:31:07.482Z,73.65
2018-04-24T13:32:07.546Z,73.55
2018-04-24T13:33:07.601Z,72.01
2018-04-24T13:34:07.674Z,72.11
2018-04-24T13:35:07.741Z,72.01
2018-04-24T13:36:07.810Z,71.82
2018-04-24T13:37:07.891Z,72.11
2018-04-24T13:38:07.940Z,72.97
2018-04-24T13:39:08.002Z,71.72
2018-04-24T13:40:08.070Z,72.39
2018-04-24T13:41:08.231Z,72.91
2018-04-24T13:42:08.205Z,71.95
2018-04-24T13:43:08.331Z,72.33
2018-04-24T13:44:08.335Z,72.14
2018-04-24T13:45:08.401Z,71.37
2018-04-24T13:46:08.476Z,71.19
2018-04-24T13:47:08.544Z,69.87
2018-04-24T13:48:08.598Z,69.78
2018-04-24T13:49:08.669Z,69.59
2018-04-24T13:50:08.734Z,70.36
2018-04-24T13:51:08.810Z,69.87
2018-04-24T13:52:08.879Z,69.30